Time;durP1;ratioP1;P1;durP2;ratioP2;P2;SDS_P1;SDS_P2;PMS_P1;PMS_P2;Temp;Humidity;BMP_temperature;BMP_pressure;BME280_temperature;BME280_humidity;BME280_pressure;Samples;Min_cycle;Max_cycle;Signal;HPM_P1;HPM_P2
2020/12/16 00:01:06;;;;;;;206.10;30.97;;;;;;;14.78;66.81;101369.22;5011683;28;20088;-60
2020/12/16 00:03:32;;;;;;;207.57;31.40;;;;;;;14.83;66.80;101365.91;5010888;28;20069;-56
2020/12/16 00:05:57;;;;;;;169.75;31.00;;;;;;;14.53;68.49;101372.56;5016297;28;20030;-60
2020/12/16 00:08:23;;;;;;;164.23;31.25;;;;;;;14.31;68.90;101364.69;5016027;28;20386;-60
2020/12/16 00:10:49;;;;;;;164.95;31.33;;;;;;;14.27;70.03;101384.16;5014587;28;20034;-61
2020/12/16 00:13:14;;;;;;;183.97;34.07;;;;;;;14.35;69.85;101386.66;5015236;28;20026;-60
2020/12/16 00:15:40;;;;;;;196.03;32.90;;;;;;;14.34;68.89;101385.81;5013556;28;20030;-61
2020/12/16 00:18:05;;;;;;;199.03;32.27;;;;;;;14.32;69.40;101376.31;5030724;28;20034;-61
2020/12/16 00:20:32;;;;;;;211.93;32.00;;;;;;;14.82;66.12;101380.41;5014060;28;20535;-60
2020/12/16 00:22:58;;;;;;;274.90;36.45;;;;;;;14.65;66.33;101379.97;5013785;28;20431;-60
2020/12/16 00:25:23;;;;;;;222.27;32.93;;;;;;;14.74;66.01;101393.03;5013935;28;20041;-62
2020/12/16 00:27:49;;;;;;;248.07;36.63;;;;;;;14.31;68.82;101377.34;5014662;28;20437;-60
2020/12/16 00:30:14;;;;;;;209.57;35.13;;;;;;;14.71;66.87;101396.16;5014093;28;20488;-61
2020/12/16 00:32:40;;;;;;;189.70;33.83;;;;;;;14.42;68.35;101392.03;5014384;28;20040;-60
2020/12/16 00:35:07;;;;;;;157.80;30.33;;;;;;;14.73;67.30;101402.16;5030278;28;20058;-62
2020/12/16 00:37:35;;;;;;;178.98;31.13;;;;;;;15.12;64.42;101391.53;5014731;28;20477;-60
2020/12/16 00:40:06;;;;;;;166.30;31.67;;;;;;;15.48;61.38;101392.00;5013722;28;20026;-60
2020/12/16 00:42:32;;;;;;;188.68;30.92;;;;;;;15.28;62.34;101395.59;5014855;28;20041;-61
2020/12/16 00:44:58;;;;;;;166.05;31.10;;;;;;;15.43;62.04;101397.19;5014325;28;20036;-60
2020/12/16 00:47:23;;;;;;;183.10;32.80;;;;;;;15.40;61.09;101401.16;5014482;28;20125;-60
2020/12/16 00:49:49;;;;;;;203.00;32.10;;;;;;;15.44;61.17;101388.06;5012629;28;20076;-61
2020/12/16 00:52:14;;;;;;;172.73;29.50;;;;;;;15.27;61.48;101375.09;5014672;28;20026;-61
2020/12/16 00:54:40;;;;;;;187.30;32.53;;;;;;;15.44;60.50;101398.84;5014092;28;20041;-60
2020/12/16 00:57:06;;;;;;;179.23;31.20;;;;;;;15.30;61.04;101395.38;5014769;28;20048;-60
2020/12/16 00:59:31;;;;;;;191.30;30.63;;;;;;;14.77;62.77;101384.56;5013409;28;20109;-61
2020/12/16 01:01:57;;;;;;;191.23;30.63;;;;;;;14.69;64.08;101392.81;5012597;28;20065;-60
2020/12/16 01:04:23;;;;;;;186.65;38.08;;;;;;;14.56;64.85;101393.66;5029594;28;20057;-59
2020/12/16 01:06:48;;;;;;;197.05;31.85;;;;;;;14.56;65.90;101398.22;5013719;28;20049;-60
2020/12/16 01:09:16;;;;;;;164.93;31.85;;;;;;;15.01;62.97;101389.47;5013242;28;20109;-60
2020/12/16 01:11:41;;;;;;;151.20;31.63;;;;;;;14.70;63.94;101393.66;5012658;28;20036;-60
2020/12/16 01:14:07;;;;;;;167.27;34.43;;;;;;;14.53;64.95;101388.69;5014452;28;20034;-60
2020/12/16 01:16:36;;;;;;;167.55;33.42;;;;;;;14.63;65.04;101399.03;5012689;28;20121;-61
2020/12/16 01:19:06;;;;;;;192.77;35.90;;;;;;;14.69;64.77;101403.59;5013161;28;20056;-60
2020/12/16 01:21:37;;;;;;;165.15;34.42;;;;;;;14.64;64.75;101389.94;5013111;28;20034;-60
2020/12/16 01:24:05;;;;;;;143.38;32.88;;;;;;;14.72;64.51;101408.56;5012397;28;20096;-60
2020/12/16 01:26:46;;;;;;;173.07;34.80;;;;;;;14.85;64.06;101412.31;5029328;28;20042;-61
2020/12/16 01:29:14;;;;;;;153.93;35.85;;;;;;;15.19;62.05;101419.25;5012860;28;20132;-61
2020/12/16 01:31:42;;;;;;;210.43;37.25;;;;;;;15.31;60.86;101405.13;5035890;28;20465;-58
2020/12/16 01:34:11;;;;;;;191.07;36.05;;;;;;;14.95;62.05;101412.69;5030382;28;20049;-61
2020/12/16 01:36:44;;;;;;;198.95;34.38;;;;;;;15.33;60.90;101417.34;5031853;28;20059;-60
2020/12/16 01:39:11;;;;;;;184.07;34.65;;;;;;;15.41;59.24;101410.06;5032719;28;20033;-60
2020/12/16 01:41:49;;;;;;;235.10;37.20;;;;;;;15.24;61.07;101399.78;5033167;28;20166;-61
2020/12/16 01:44:24;;;;;;;211.10;35.13;;;;;;;15.24;61.37;101425.88;5016403;28;20034;-61
2020/12/16 01:46:59;;;;;;;226.32;35.05;;;;;;;15.27;61.37;101420.06;5011947;28;20052;-61
2020/12/16 01:49:31;;;;;;;223.05;36.72;;;;;;;15.66;59.00;101428.19;5012345;28;20438;-60
2020/12/16 01:52:01;;;;;;;219.47;35.53;;;;;;;15.66;58.53;101422.78;5011635;28;20064;-61
2020/12/16 01:54:31;;;;;;;156.15;33.58;;;;;;;15.90;57.55;101422.06;5012465;28;20062;-61
2020/12/16 01:56:57;;;;;;;163.35;35.58;;;;;;;16.49;54.90;101431.81;5026477;28;20038;-59
2020/12/16 01:59:42;;;;;;;133.30;34.20;;;;;;;15.89;57.63;101441.19;5011566;28;20121;-57
2020/12/16 02:02:16;;;;;;;186.43;35.22;;;;;;;15.08;61.43;101440.63;4996675;28;20128;-62
2020/12/16 02:04:45;;;;;;;164.45;34.50;;;;;;;15.49;59.07;101437.59;5027904;28;20358;-55
2020/12/16 02:07:13;;;;;;;176.30;35.00;;;;;;;15.51;59.35;101448.19;5012145;28;20057;-61
2020/12/16 02:09:43;;;;;;;204.60;35.10;;;;;;;15.03;62.08;101452.88;5028360;28;20030;-60
2020/12/16 02:12:20;;;;;;;189.85;31.60;;;;;;;14.25;65.68;101445.41;5028261;28;20068;-60
2020/12/16 02:14:46;;;;;;;211.00;37.75;;;;;;;14.94;62.69;101440.66;5011080;28;20034;-60
2020/12/16 02:17:16;;;;;;;192.70;36.38;;;;;;;15.15;61.00;101436.06;5013007;28;20037;-60
2020/12/16 02:20:06;;;;;;;169.95;34.70;;;;;;;15.19;59.67;101435.44;5030749;28;20441;-60
2020/12/16 02:22:37;;;;;;;182.85;36.20;;;;;;;15.01;61.45;101438.78;5032830;28;20037;-60
2020/12/16 02:25:08;;;;;;;237.15;39.28;;;;;;;15.15;61.35;101444.13;5032105;28;20461;-59
2020/12/16 02:27:42;;;;;;;212.00;39.75;;;;;;;15.12;61.25;101452.63;5030703;28;20063;-61
2020/12/16 02:30:15;;;;;;;174.32;34.60;;;;;;;15.10;61.04;101452.03;5031463;28;20037;-60
2020/12/16 02:33:16;;;;;;;204.52;34.63;;;;;;;15.01;61.93;101432.56;5038850;28;20041;-60
2020/12/16 02:35:56;;;;;;;140.65;33.42;;;;;;;15.99;56.74;101428.03;5031895;28;20108;-61
2020/12/16 02:38:43;;;;;;;212.57;34.40;;;;;;;15.54;59.39;101436.97;5016175;28;20167;-60
2020/12/16 02:41:09;;;;;;;185.85;35.17;;;;;;;15.88;57.06;101431.41;5031831;28;20116;-59
2020/12/16 02:43:34;;;;;;;231.13;38.37;;;;;;;15.75;58.05;101437.69;5032280;28;20084;-61
2020/12/16 02:46:01;;;;;;;155.27;36.20;;;;;;;16.09;56.74;101432.94;5030869;28;20029;-60
2020/12/16 02:48:27;;;;;;;207.95;36.75;;;;;;;15.44;59.45;101441.97;5031023;28;20073;-61
2020/12/16 02:50:54;;;;;;;164.93;33.95;;;;;;;15.70;59.17;101424.84;5031668;28;20069;-60
2020/12/16 02:53:21;;;;;;;137.90;33.55;;;;;;;15.96;57.36;101420.38;5030563;28;20043;-60
2020/12/16 02:56:05;;;;;;;155.13;32.42;;;;;;;15.70;59.07;101421.34;5031660;28;20068;-61
2020/12/16 02:58:45;;;;;;;129.95;32.45;;;;;;;15.33;61.23;101421.88;5031078;28;20124;-61
2020/12/16 03:01:11;;;;;;;210.25;36.28;;;;;;;14.99;63.31;101405.88;5031479;28;20036;-60
2020/12/16 03:03:59;;;;;;;148.00;30.80;;;;;;;15.84;59.15;101411.31;5030130;28;20129;-61
2020/12/16 03:06:47;;;;;;;232.40;34.50;;;;;;;15.62;60.14;101422.41;5030952;28;20193;-61
2020/12/16 03:09:16;;;;;;;173.25;33.55;;;;;;;15.30;61.62;101425.84;5030637;28;20132;-61
2020/12/16 03:11:48;;;;;;;173.95;32.85;;;;;;;16.15;57.58;101424.00;5014757;28;20421;-61
2020/12/16 03:14:18;;;;;;;187.65;32.88;;;;;;;15.80;59.31;101434.34;5030653;28;20037;-60
2020/12/16 03:16:45;;;;;;;235.25;34.72;;;;;;;15.57;60.68;101436.53;5030410;28;20044;-60
2020/12/16 03:19:19;;;;;;;196.48;33.05;;;;;;;15.14;62.35;101447.88;5030680;28;20068;-61
2020/12/16 03:21:44;;;;;;;203.47;34.83;;;;;;;14.60;66.69;101448.72;5030455;28;20072;-61
2020/12/16 03:24:20;;;;;;;251.05;39.75;;;;;;;13.81;72.41;101426.91;5030564;28;20254;-61
2020/12/16 03:27:12;;;;;;;313.58;41.35;;;;;;;14.37;70.11;101433.00;5029688;28;20127;-59
2020/12/16 03:30:04;;;;;;;180.38;38.53;;;;;;;14.66;67.67;101440.88;5031369;28;20037;-60
2020/12/16 03:33:02;;;;;;;296.60;44.00;;;;;;;14.58;68.35;101444.59;5035233;28;20037;-60
2020/12/16 03:35:40;;;;;;;188.93;36.15;;;;;;;14.42;68.81;101445.84;5030458;28;20034;-60
2020/12/16 03:38:08;;;;;;;213.57;38.65;;;;;;;15.15;64.48;101444.13;5029607;28;20037;-60
2020/12/16 03:40:35;;;;;;;169.60;34.30;;;;;;;15.20;64.33;101452.41;5030182;28;20129;-60
2020/12/16 03:43:03;;;;;;;204.73;37.53;;;;;;;15.26;63.63;101446.19;5030493;28;20049;-61
2020/12/16 03:45:28;;;;;;;148.20;36.00;;;;;;;15.63;61.11;101427.56;5031497;28;20034;-60
2020/12/16 03:47:55;;;;;;;266.48;39.10;;;;;;;14.80;64.51;101422.88;5029673;28;20465;-61
2020/12/16 03:50:21;;;;;;;271.75;41.60;;;;;;;15.11;63.24;101432.97;5014590;28;20056;-60
2020/12/16 03:52:49;;;;;;;235.63;38.75;;;;;;;15.16;62.58;101429.63;5030560;28;20124;-61
2020/12/16 03:55:32;;;;;;;228.38;34.88;;;;;;;15.16;62.86;101433.16;5031498;28;20080;-61
2020/12/16 03:58:09;;;;;;;214.45;33.13;;;;;;;14.79;64.15;101429.31;5030541;28;20402;-61
2020/12/16 04:01:08;;;;;;;201.52;35.13;;;;;;;14.83;63.85;101427.84;5035188;28;20386;-61
2020/12/16 04:03:35;;;;;;;332.52;40.45;;;;;;;14.54;65.18;101438.00;5031540;28;20037;-62
2020/12/16 04:06:14;;;;;;;249.80;34.47;;;;;;;14.35;65.51;101443.16;5029519;28;20483;-61
2020/12/16 04:08:44;;;;;;;183.65;31.33;;;;;;;14.22;66.93;101418.91;5013922;28;20076;-60
2020/12/16 04:11:36;;;;;;;194.77;34.80;;;;;;;14.80;63.68;101431.78;5031839;28;20041;-60
2020/12/16 04:14:13;;;;;;;109.07;28.95;;;;;;;15.28;60.34;101427.94;5029538;28;20044;-61
2020/12/16 04:16:40;;;;;;;155.00;29.45;;;;;;;15.19;60.02;101418.41;5030060;28;20437;-61
2020/12/16 04:19:13;;;;;;;237.90;38.50;;;;;;;15.23;60.23;101435.00;5029123;28;20103;-60
2020/12/16 04:21:38;;;;;;;194.75;34.30;;;;;;;15.56;57.73;101429.50;5029932;28;20053;-60
2020/12/16 04:24:06;;;;;;;278.10;37.53;;;;;;;15.06;60.02;101435.44;5029273;28;20321;-61
2020/12/16 04:26:44;;;;;;;219.98;35.13;;;;;;;14.92;61.04;101429.25;5015298;28;20068;-61
2020/12/16 04:29:14;;;;;;;240.65;35.83;;;;;;;14.54;63.44;101441.50;5029046;28;20489;-61
2020/12/16 04:31:39;;;;;;;196.60;36.60;;;;;;;14.80;61.38;101433.66;5029711;28;20114;-61
2020/12/16 04:34:06;;;;;;;293.60;41.45;;;;;;;14.26;64.76;101425.53;5029212;28;20120;-61
2020/12/16 04:36:33;;;;;;;207.35;39.60;;;;;;;14.48;63.60;101424.31;5029568;28;20045;-61
2020/12/16 04:38:59;;;;;;;275.77;42.22;;;;;;;14.92;61.17;101437.34;5030493;28;20038;-61
2020/12/16 04:41:26;;;;;;;;;;;;;;;14.47;64.26;101438.78;5030122;28;20038;-61
2020/12/16 04:44:05;;;;;;;227.75;41.42;;;;;;;14.63;61.76;101439.41;5029142;28;19920;-61
2020/12/16 04:46:37;;;;;;;263.95;45.65;;;;;;;14.59;62.31;101419.34;5029516;28;20052;-62
2020/12/16 04:49:04;;;;;;;301.80;48.20;;;;;;;14.50;62.25;101434.88;5028751;28;20381;-60
2020/12/16 04:51:40;;;;;;;265.83;45.42;;;;;;;15.18;57.86;101436.47;5031528;28;20044;-59
2020/12/16 04:54:06;;;;;;;190.75;41.78;;;;;;;15.45;57.87;101440.91;5032518;28;20100;-61
2020/12/16 04:56:36;;;;;;;235.85;43.75;;;;;;;15.12;59.17;101439.16;5033148;28;20321;-61
2020/12/16 04:59:05;;;;;;;159.88;37.60;;;;;;;15.44;57.83;101436.56;5032478;28;20037;-60
2020/12/16 05:01:41;;;;;;;227.80;42.65;;;;;;;15.35;57.58;101438.69;5033136;28;20183;-59
2020/12/16 05:04:09;;;;;;;358.55;50.42;;;;;;;14.22;63.74;101421.59;5034200;28;20032;-61
2020/12/16 05:06:46;;;;;;;269.70;43.97;;;;;;;14.62;63.00;101429.69;5033212;28;20033;-60
2020/12/16 05:09:14;;;;;;;283.03;47.53;;;;;;;14.41;64.35;101439.63;5032385;28;20040;-60
2020/12/16 05:11:45;;;;;;;309.80;44.28;;;;;;;14.54;63.96;101441.50;5016687;28;20547;-60
2020/12/16 05:14:37;;;;;;;298.38;45.83;;;;;;;14.55;64.09;101445.03;5033665;28;20064;-60
2020/12/16 05:17:05;;;;;;;269.25;40.83;;;;;;;14.55;63.58;101435.06;5029901;28;20140;-60
2020/12/16 05:19:39;;;;;;;326.33;47.03;;;;;;;14.81;62.94;101438.00;5032891;28;20136;-60
2020/12/16 05:22:24;;;;;;;319.85;49.85;;;;;;;15.68;59.54;101440.41;5033244;28;20085;-61
2020/12/16 05:24:55;;;;;;;239.48;43.85;;;;;;;15.10;60.57;101443.94;5033851;28;20033;-61
2020/12/16 05:27:32;;;;;;;194.38;43.17;;;;;;;15.41;59.49;101450.47;5033488;28;20061;-60
2020/12/16 05:30:00;;;;;;;327.27;48.78;;;;;;;14.80;62.66;101444.41;5033549;28;20036;-61
2020/12/16 05:32:28;;;;;;;415.02;49.67;;;;;;;14.39;66.17;101447.09;5035162;28;20041;-61
2020/12/16 05:34:56;;;;;;;326.48;45.58;;;;;;;14.68;64.25;101449.56;5016629;28;20372;-60
2020/12/16 05:37:23;;;;;;;312.80;45.53;;;;;;;14.84;63.82;101446.47;5033175;28;20026;-60
2020/12/16 05:40:12;;;;;;;310.52;44.60;;;;;;;14.66;64.96;101441.69;5034571;28;20406;-61
2020/12/16 05:42:39;;;;;;;268.17;41.17;;;;;;;14.68;64.85;101436.13;5034698;28;20037;-60
2020/12/16 05:45:13;;;;;;;420.80;49.92;;;;;;;14.74;64.33;101432.63;5033390;28;20112;-60
2020/12/16 05:47:41;;;;;;;253.02;39.40;;;;;;;14.77;64.50;101424.13;5033960;28;20373;-62
2020/12/16 05:50:16;;;;;;;260.45;37.67;;;;;;;15.21;61.32;101437.91;5032896;28;20065;-61
2020/12/16 05:52:42;;;;;;;329.40;41.58;;;;;;;14.82;64.53;101440.47;5033714;28;20086;-63
2020/12/16 05:55:08;;;;;;;293.13;39.05;;;;;;;15.27;61.30;101444.31;5032811;28;20087;-60
2020/12/16 05:57:33;;;;;;;266.20;36.93;;;;;;;15.45;60.87;101449.00;5033436;28;20037;-60
2020/12/16 06:00:06;;;;;;;214.93;36.17;;;;;;;15.55;60.06;101448.56;5033133;28;20033;-61
2020/12/16 06:02:45;;;;;;;260.73;34.13;;;;;;;15.36;61.03;101450.28;5032119;28;20094;-60
2020/12/16 06:05:12;;;;;;;239.23;33.13;;;;;;;15.24;61.16;101455.50;5032562;28;20033;-60
2020/12/16 06:07:40;;;;;;;258.90;33.83;;;;;;;15.65;59.36;101440.00;5032821;28;20346;-59
2020/12/16 06:10:07;;;;;;;209.05;33.70;;;;;;;15.22;60.51;101450.31;5032525;28;20059;-61
2020/12/16 06:12:38;;;;;;;214.73;31.15;;;;;;;15.27;61.34;101465.88;5031926;28;20500;-60
2020/12/16 06:15:09;;;;;;;211.48;31.42;;;;;;;15.47;59.63;101463.13;5033086;28;20364;-60
2020/12/16 06:17:49;;;;;;;158.52;29.02;;;;;;;15.43;59.97;101456.47;5032715;28;20128;-61
2020/12/16 06:20:20;;;;;;;299.60;41.33;;;;;;;15.95;57.46;101467.28;5022014;28;20385;-60
2020/12/16 06:22:48;;;;;;;132.52;33.00;;;;;;;16.22;55.70;101455.50;5023167;28;20032;-60
2020/12/16 06:25:16;;;;;;;136.43;31.40;;;;;;;16.19;55.54;101459.44;5022278;28;20454;-61
2020/12/16 06:27:47;;;;;;;182.77;31.75;;;;;;;15.98;55.65;101458.75;5021283;28;20038;-59
2020/12/16 06:30:16;;;;;;;156.93;30.13;;;;;;;16.14;55.34;101460.09;5021604;28;20041;-60
2020/12/16 06:32:46;;;;;;;91.78;28.00;;;;;;;16.24;54.54;101451.53;5022945;28;20033;-60
2020/12/16 06:35:17;;;;;;;89.70;26.58;;;;;;;16.24;54.23;101467.72;5036730;28;20418;-61
2020/12/16 06:37:43;;;;;;;81.38;24.60;;;;;;;16.04;53.95;101447.13;5035930;28;20123;-59
2020/12/16 06:40:09;;;;;;;196.95;31.27;;;;;;;15.93;54.10;101457.75;5021894;28;20151;-61
2020/12/16 06:42:34;;;;;;;78.40;25.43;;;;;;;15.82;54.09;101460.06;5022243;28;20117;-60
2020/12/16 06:45:10;;;;;;;80.03;25.20;;;;;;;15.93;53.56;101460.47;5021281;28;20112;-60
2020/12/16 06:47:35;;;;;;;58.38;25.23;;;;;;;16.04;53.13;101448.97;5022243;28;20038;-60
2020/12/16 06:50:19;;;;;;;78.43;25.17;;;;;;;15.92;53.50;101465.00;5018001;28;20084;-60
2020/12/16 06:52:45;;;;;;;49.92;23.90;;;;;;;15.58;54.17;101451.66;5022085;28;20065;-60
2020/12/16 06:55:11;;;;;;;102.57;25.73;;;;;;;15.65;54.59;101464.28;5020014;28;20068;-59
2020/12/16 06:57:49;;;;;;;45.87;22.00;;;;;;;15.68;53.83;101458.44;5018739;28;20317;-61
2020/12/16 07:00:23;;;;;;;108.45;24.48;;;;;;;15.28;54.87;101457.59;5033368;28;20068;-59
2020/12/16 07:02:50;;;;;;;53.97;21.55;;;;;;;15.05;56.43;101456.19;5023167;28;20033;-58
2020/12/16 07:05:36;;;;;;;58.30;21.55;;;;;;;15.38;55.69;101459.00;5020866;28;20491;-61
2020/12/16 07:08:02;;;;;;;63.88;22.13;;;;;;;15.15;54.91;101439.59;5021233;28;20568;-60
2020/12/16 07:10:33;;;;;;;44.97;20.90;;;;;;;14.96;55.73;101441.25;5024693;28;20068;-61
2020/12/16 07:13:19;;;;;;;59.65;22.33;;;;;;;14.92;55.98;101440.03;5019720;28;20519;-60
2020/12/16 07:15:55;;;;;;;66.72;23.83;;;;;;;15.09;54.96;101442.28;5018349;28;20029;-60
2020/12/16 07:18:27;;;;;;;130.20;25.85;;;;;;;14.81;56.20;101438.00;5011316;28;20045;-60
2020/12/16 07:21:15;;;;;;;63.30;23.58;;;;;;;14.91;56.29;101431.16;5012131;28;20454;-59
2020/12/16 07:23:45;;;;;;;88.28;25.35;;;;;;;14.93;55.12;101447.06;5012291;28;20096;-61
2020/12/16 07:26:16;;;;;;;68.50;21.83;;;;;;;14.76;55.73;101442.16;5011407;28;20033;-60
2020/12/16 07:28:42;;;;;;;50.58;23.27;;;;;;;14.73;55.83;101452.50;5010975;28;20092;-60
2020/12/16 07:31:08;;;;;;;67.47;23.77;;;;;;;14.72;56.05;101450.84;5010268;28;20026;-59
2020/12/16 07:33:34;;;;;;;49.20;23.60;;;;;;;14.80;55.02;101441.72;5015953;28;20500;-60
2020/12/16 07:36:00;;;;;;;42.33;23.90;;;;;;;14.93;54.70;101455.16;5013226;28;20061;-61
2020/12/16 07:38:27;;;;;;;46.10;22.60;;;;;;;14.50;56.47;101445.63;5030784;28;20112;-62
2020/12/16 07:40:54;;;;;;;40.72;21.98;;;;;;;14.87;54.17;101450.63;5031790;28;20391;-60
2020/12/16 07:43:21;;;;;;;48.15;23.63;;;;;;;14.67;55.55;101456.00;5021209;28;20034;-60
2020/12/16 07:45:47;;;;;;;49.88;24.27;;;;;;;14.33;56.43;101450.59;5011345;28;20070;-60
2020/12/16 07:48:16;;;;;;;47.42;25.30;;;;;;;14.47;57.12;101437.97;5011164;28;20042;-59
2020/12/16 07:50:42;;;;;;;48.85;23.65;;;;;;;14.61;55.56;101450.38;5011945;28;20046;-61
2020/12/16 07:53:08;;;;;;;47.58;22.73;;;;;;;14.67;55.20;101445.22;5026996;28;20409;-61
2020/12/16 07:55:38;;;;;;;51.67;24.52;;;;;;;14.47;56.15;101444.19;5009940;28;20049;-61
2020/12/16 07:58:08;;;;;;;52.88;24.60;;;;;;;14.52;55.49;101445.41;5006303;28;20045;-60
2020/12/16 08:00:33;;;;;;;49.28;25.20;;;;;;;14.37;56.88;101453.69;5023692;28;20041;-60
2020/12/16 08:03:00;;;;;;;50.43;24.17;;;;;;;13.93;58.42;101451.34;5031064;28;20088;-60
2020/12/16 08:05:26;;;;;;;48.88;23.40;;;;;;;13.94;59.27;101458.38;5029872;28;20026;-58
2020/12/16 08:07:53;;;;;;;49.97;24.65;;;;;;;13.72;60.29;101452.31;5029276;28;20044;-58
2020/12/16 08:10:22;;;;;;;44.92;23.25;;;;;;;13.36;62.64;101442.59;5028713;28;20037;-60
2020/12/16 08:12:51;;;;;;;49.13;22.80;;;;;;;13.52;61.67;101446.88;5029756;28;20080;-60
2020/12/16 08:15:17;;;;;;;43.88;22.40;;;;;;;14.28;57.74;101447.69;5030074;28;20041;-60
2020/12/16 08:17:45;;;;;;;44.70;22.83;;;;;;;13.91;59.51;101459.63;5030659;28;20036;-60
2020/12/16 08:20:13;;;;;;;48.20;23.65;;;;;;;13.70;59.81;101463.25;5031117;28;20377;-60
2020/12/16 08:22:39;;;;;;;42.55;21.80;;;;;;;13.91;59.72;101474.91;5029159;28;20038;-61
2020/12/16 08:25:10;;;;;;;42.17;21.70;;;;;;;14.19;58.22;101472.09;5031396;28;20037;-61
2020/12/16 08:27:37;;;;;;;42.40;21.75;;;;;;;14.05;58.85;101462.31;5033924;28;20071;-60
2020/12/16 08:30:05;;;;;;;43.08;22.50;;;;;;;14.34;57.47;101471.91;5035177;28;20076;-60
2020/12/16 08:32:34;;;;;;;41.85;21.42;;;;;;;14.20;58.04;101487.19;5034733;28;20041;-60
2020/12/16 08:35:03;;;;;;;43.75;21.42;;;;;;;14.03;58.64;101469.78;5037447;28;20108;-60
2020/12/16 08:37:29;;;;;;;56.58;22.02;;;;;;;13.75;60.91;101482.31;5036310;28;20187;-60
2020/12/16 08:39:55;;;;;;;;;;;;;;;13.83;63.11;101483.16;5036387;28;20463;-60
2020/12/16 08:42:25;;;;;;;44.67;21.57;;;;;;;14.10;59.51;101465.25;5034405;28;19935;-59
2020/12/16 08:44:51;;;;;;;42.75;22.70;;;;;;;13.94;61.38;101473.69;5034409;28;20034;-61
2020/12/16 08:47:25;;;;;;;32.33;17.33;;;;;;;13.79;63.08;101480.03;5035022;28;20033;-57
2020/12/16 08:49:51;;;;;;;36.22;20.70;;;;;;;13.91;61.98;101472.22;5034588;28;20521;-60
2020/12/16 08:52:17;;;;;;;37.22;19.73;;;;;;;14.13;61.35;101459.47;5034086;28;20034;-60
2020/12/16 08:54:44;;;;;;;27.73;15.60;;;;;;;14.34;60.86;101466.53;5033937;28;20076;-60
2020/12/16 08:57:11;;;;;;;34.28;18.88;;;;;;;14.34;61.02;101460.31;5032010;28;20136;-61
2020/12/16 08:59:37;;;;;;;39.78;19.05;;;;;;;14.22;61.61;101461.94;5033555;28;20337;-61
2020/12/16 09:02:03;;;;;;;;;;;;;;;14.49;60.48;101477.09;5034603;28;20455;-60
2020/12/16 09:04:33;;;;;;;37.73;19.77;;;;;;;14.43;61.14;101480.59;5032332;28;19992;-60
2020/12/16 09:07:13;;;;;;;37.20;18.23;;;;;;;14.28;62.34;101482.66;5034324;28;20057;-61
2020/12/16 09:09:41;;;;;;;35.65;18.90;;;;;;;14.60;60.60;101481.03;5027451;28;20113;-61
2020/12/16 09:12:11;;;;;;;39.45;19.13;;;;;;;14.64;60.39;101484.16;5018269;28;20037;-61
2020/12/16 09:14:38;;;;;;;34.88;17.63;;;;;;;15.24;57.70;101486.00;5033538;28;20075;-61
2020/12/16 09:17:07;;;;;;;36.05;18.52;;;;;;;14.94;59.96;101469.47;5013328;28;20042;-61
2020/12/16 09:19:34;;;;;;;29.63;17.92;;;;;;;15.01;60.73;101479.19;5031782;28;20025;-60
2020/12/16 09:22:00;;;;;;;31.20;17.02;;;;;;;15.02;59.78;101462.00;5022177;28;20037;-60
2020/12/16 09:24:26;;;;;;;33.78;17.33;;;;;;;15.41;58.14;101477.44;5023270;28;20112;-63
2020/12/16 09:26:55;;;;;;;27.92;15.00;;;;;;;15.37;57.83;101473.50;5022863;28;20037;-60
2020/12/16 09:29:22;;;;;;;30.35;15.90;;;;;;;15.49;58.41;101488.81;5019668;28;20034;-60
2020/12/16 09:31:50;;;;;;;31.58;16.65;;;;;;;15.45;59.75;101497.53;5014457;28;20038;-61
2020/12/16 09:34:17;;;;;;;32.90;17.65;;;;;;;16.13;59.08;101487.31;5030653;28;20088;-60
2020/12/16 09:36:43;;;;;;;30.05;16.48;;;;;;;17.13;55.98;101480.28;5014273;28;20056;-61
2020/12/16 09:39:08;;;;;;;21.95;13.27;;;;;;;18.47;52.03;101494.03;5014495;28;20330;-61
2020/12/16 09:41:43;;;;;;;20.58;11.15;;;;;;;18.26;51.19;101491.84;5013392;28;20041;-60
2020/12/16 09:44:31;;;;;;;18.23;12.00;;;;;;;18.94;50.03;101500.53;5030454;28;20121;-63
2020/12/16 09:47:22;;;;;;;21.63;10.60;;;;;;;19.46;48.88;101501.69;5013696;28;20271;-62
2020/12/16 09:50:08;;;;;;;16.43;9.53;;;;;;;19.53;48.50;101507.00;5012431;28;20280;-60
2020/12/16 09:52:36;;;;;;;13.30;8.27;;;;;;;19.21;47.96;101508.22;5013134;28;20292;-60
2020/12/16 09:55:19;;;;;;;12.47;9.10;;;;;;;19.32;48.96;101498.41;5013535;28;20654;-60
2020/12/16 09:57:57;;;;;;;11.80;7.67;;;;;;;19.85;47.69;101485.66;5012753;28;20291;-61
2020/12/16 10:00:22;;;;;;;15.63;8.70;;;;;;;19.89;46.17;101494.13;5027696;28;20274;-60
2020/12/16 10:02:47;;;;;;;12.67;8.80;;;;;;;20.22;47.24;101489.03;5013420;28;20042;-61
2020/12/16 10:05:13;;;;;;;14.00;8.23;;;;;;;20.71;45.58;101496.66;5012639;28;20035;-60
2020/12/16 10:07:38;;;;;;;14.97;8.80;;;;;;;20.06;47.03;101483.34;5011135;28;20123;-61
2020/12/16 10:10:04;;;;;;;15.10;9.17;;;;;;;20.73;44.53;101498.03;5012893;28;20378;-60
2020/12/16 10:12:30;;;;;;;14.20;9.40;;;;;;;20.57;44.97;101477.16;5012052;28;20046;-60
2020/12/16 10:14:55;;;;;;;12.53;8.00;;;;;;;21.27;43.82;101464.03;5012913;28;20052;-59
2020/12/16 10:17:24;;;;;;;13.03;8.43;;;;;;;20.87;43.60;101460.50;5013017;28;20034;-63
2020/12/16 10:19:51;;;;;;;12.80;8.27;;;;;;;21.53;42.93;101458.06;5013355;28;20116;-59
2020/12/16 10:22:17;;;;;;;11.93;7.90;;;;;;;21.27;42.49;101464.03;5013324;28;20264;-60
2020/12/16 10:24:42;;;;;;;11.57;7.68;;;;;;;21.29;42.43;101459.16;5012483;28;20322;-61
2020/12/16 10:27:08;;;;;;;16.30;9.15;;;;;;;21.82;42.51;101471.50;5012233;28;20127;-59
2020/12/16 10:29:34;;;;;;;10.57;7.63;;;;;;;21.76;41.69;101462.44;5011623;28;20048;-60
2020/12/16 10:31:59;;;;;;;13.52;8.63;;;;;;;21.14;43.08;101456.25;5012818;28;20038;-61
2020/12/16 10:34:25;;;;;;;11.88;7.90;;;;;;;21.56;42.81;101465.72;5011664;28;20038;-60
2020/12/16 10:36:52;;;;;;;12.67;8.27;;;;;;;22.77;39.83;101451.06;5012234;28;20053;-60
2020/12/16 10:39:19;;;;;;;13.13;8.07;;;;;;;22.37;41.59;101442.28;5013057;28;20591;-61
2020/12/16 10:41:53;;;;;;;14.80;8.73;;;;;;;23.05;41.14;101435.41;5011705;28;20274;-61
2020/12/16 10:44:19;;;;;;;14.30;7.93;;;;;;;22.81;40.67;101432.25;5012608;28;20291;-61
2020/12/16 10:46:46;;;;;;;11.80;7.57;;;;;;;22.90;41.15;101441.59;5011424;28;20045;-59
2020/12/16 10:49:12;;;;;;;10.60;7.20;;;;;;;22.53;41.76;101431.53;5010124;28;20115;-59
2020/12/16 10:51:37;;;;;;;18.30;8.77;;;;;;;22.14;42.32;101441.56;5012299;28;20437;-60
2020/12/16 10:54:03;;;;;;;11.07;7.70;;;;;;;22.31;42.59;101437.91;5012353;28;20422;-60
2020/12/16 10:56:28;;;;;;;12.73;7.68;;;;;;;22.28;41.44;101431.06;5010643;28;20034;-59
2020/12/16 10:58:54;;;;;;;10.93;7.93;;;;;;;22.48;41.00;101454.13;5010574;28;20438;-61
2020/12/16 11:01:19;;;;;;;10.87;7.43;;;;;;;22.06;41.16;101450.22;5011792;28;20604;-60
2020/12/16 11:03:44;;;;;;;11.73;8.07;;;;;;;23.02;40.79;101441.38;5011323;28;20229;-59
2020/12/16 11:06:12;;;;;;;11.83;8.17;;;;;;;22.65;39.29;101445.81;5011753;28;20278;-60
2020/12/16 11:08:38;;;;;;;13.07;7.87;;;;;;;23.15;40.73;101437.34;5010973;28;20044;-65
2020/12/16 11:11:03;;;;;;;11.25;7.93;;;;;;;23.33;39.60;101444.28;5012016;28;20461;-59
2020/12/16 11:13:29;;;;;;;11.63;7.45;;;;;;;23.15;40.53;101435.44;5010975;28;20068;-60
2020/12/16 11:15:54;;;;;;;10.57;7.47;;;;;;;23.56;38.90;101432.06;5011316;28;20030;-59
2020/12/16 11:18:20;;;;;;;12.53;8.03;;;;;;;24.51;37.42;101423.66;5019450;28;20282;-60
2020/12/16 11:20:45;;;;;;;11.17;7.07;;;;;;;25.25;36.81;101425.94;5018455;28;20453;-60